sensor_id;sensor_type;location;lat;lon;timestamp;pressure;altitude;pressure_sealevel;temperature
68127;BMP180;54931;52.098;21.006;2023-10-13T00:00:42;100241.40;;;5.80
68127;BMP180;54931;52.098;21.006;2023-10-13T00:03:31;100243.80;;;5.80
68127;BMP180;54931;52.098;21.006;2023-10-13T00:05:59;100242.20;;;5.80
68127;BMP180;54931;52.098;21.006;2023-10-13T00:08:30;100244.60;;;5.76
68127;BMP180;54931;52.098;21.006;2023-10-13T00:10:58;100237.80;;;5.76
68127;BMP180;54931;52.098;21.006;2023-10-13T00:13:32;100238.80;;;5.78
68127;BMP180;54931;52.098;21.006;2023-10-13T00:16:18;100240.20;;;5.80
68127;BMP180;54931;52.098;21.006;2023-10-13T00:18:51;100244.80;;;5.80
68127;BMP180;54931;52.098;21.006;2023-10-13T00:21:24;100243.00;;;5.80
68127;BMP180;54931;52.098;21.006;2023-10-13T00:24:04;100246.60;;;5.90
68127;BMP180;54931;52.098;21.006;2023-10-13T00:26:39;100242.00;;;6.00
68127;BMP180;54931;52.098;21.006;2023-10-13T00:29:10;100242.00;;;6.04
68127;BMP180;54931;52.098;21.006;2023-10-13T00:31:41;100246.80;;;6.10
68127;BMP180;54931;52.098;21.006;2023-10-13T00:34:10;100246.40;;;6.20
68127;BMP180;54931;52.098;21.006;2023-10-13T00:36:41;100247.40;;;6.30
68127;BMP180;54931;52.098;21.006;2023-10-13T00:39:16;100251.60;;;6.38
68127;BMP180;54931;52.098;21.006;2023-10-13T00:41:43;100259.00;;;6.40
68127;BMP180;54931;52.098;21.006;2023-10-13T00:44:24;100258.20;;;6.40
68127;BMP180;54931;52.098;21.006;2023-10-13T00:47:17;100264.40;;;6.48
68127;BMP180;54931;52.098;21.006;2023-10-13T00:50:08;100263.20;;;6.48
68127;BMP180;54931;52.098;21.006;2023-10-13T00:52:40;100266.20;;;6.48
68127;BMP180;54931;52.098;21.006;2023-10-13T00:55:11;100263.60;;;6.50
68127;BMP180;54931;52.098;21.006;2023-10-13T00:57:40;100265.40;;;6.42
68127;BMP180;54931;52.098;21.006;2023-10-13T01:00:10;100264.60;;;6.40
68127;BMP180;54931;52.098;21.006;2023-10-13T01:02:53;100259.20;;;6.36
68127;BMP180;54931;52.098;21.006;2023-10-13T01:05:26;100256.40;;;6.30
68127;BMP180;54931;52.098;21.006;2023-10-13T01:07:54;100262.20;;;6.30
68127;BMP180;54931;52.098;21.006;2023-10-13T01:10:22;100264.40;;;6.20
68127;BMP180;54931;52.098;21.006;2023-10-13T01:13:00;100260.80;;;6.20
68127;BMP180;54931;52.098;21.006;2023-10-13T01:15:29;100258.20;;;6.28
68127;BMP180;54931;52.098;21.006;2023-10-13T01:18:11;100264.00;;;6.30
68127;BMP180;54931;52.098;21.006;2023-10-13T01:20:40;100272.20;;;6.40
68127;BMP180;54931;52.098;21.006;2023-10-13T01:23:14;100283.00;;;6.42
68127;BMP180;54931;52.098;21.006;2023-10-13T01:25:52;100282.40;;;6.50
68127;BMP180;54931;52.098;21.006;2023-10-13T01:28:22;100284.00;;;6.60
68127;BMP180;54931;52.098;21.006;2023-10-13T01:30:49;100283.00;;;6.68
68127;BMP180;54931;52.098;21.006;2023-10-13T01:33:21;100282.80;;;6.72
68127;BMP180;54931;52.098;21.006;2023-10-13T01:35:55;100276.40;;;6.80
68127;BMP180;54931;52.098;21.006;2023-10-13T01:38:25;100285.00;;;6.90
68127;BMP180;54931;52.098;21.006;2023-10-13T01:41:00;100289.40;;;6.90
68127;BMP180;54931;52.098;21.006;2023-10-13T01:43:28;100288.60;;;6.90
68127;BMP180;54931;52.098;21.006;2023-10-13T01:45:56;100283.00;;;6.90
68127;BMP180;54931;52.098;21.006;2023-10-13T01:48:24;100283.20;;;6.86
68127;BMP180;54931;52.098;21.006;2023-10-13T01:50:56;100288.40;;;6.80
68127;BMP180;54931;52.098;21.006;2023-10-13T01:53:27;100283.60;;;6.80
68127;BMP180;54931;52.098;21.006;2023-10-13T01:55:56;100285.20;;;6.70
68127;BMP180;54931;52.098;21.006;2023-10-13T01:58:29;100281.40;;;6.70
68127;BMP180;54931;52.098;21.006;2023-10-13T02:00:57;100281.20;;;6.70
68127;BMP180;54931;52.098;21.006;2023-10-13T02:03:27;100280.80;;;6.70
68127;BMP180;54931;52.098;21.006;2023-10-13T02:05:58;100277.20;;;6.78
68127;BMP180;54931;52.098;21.006;2023-10-13T02:08:33;100269.80;;;6.80
68127;BMP180;54931;52.098;21.006;2023-10-13T02:11:03;100272.40;;;6.90
68127;BMP180;54931;52.098;21.006;2023-10-13T02:13:35;100268.40;;;7.00
68127;BMP180;54931;52.098;21.006;2023-10-13T02:16:09;100279.40;;;7.10
68127;BMP180;54931;52.098;21.006;2023-10-13T02:18:37;100279.80;;;7.18
68127;BMP180;54931;52.098;21.006;2023-10-13T02:21:11;100288.20;;;7.20
68127;BMP180;54931;52.098;21.006;2023-10-13T02:23:42;100282.60;;;7.30
68127;BMP180;54931;52.098;21.006;2023-10-13T02:26:13;100276.60;;;7.40
68127;BMP180;54931;52.098;21.006;2023-10-13T02:28:43;100280.00;;;7.48
68127;BMP180;54931;52.098;21.006;2023-10-13T02:31:11;100284.20;;;7.54
68127;BMP180;54931;52.098;21.006;2023-10-13T02:33:39;100287.80;;;7.60
68127;BMP180;54931;52.098;21.006;2023-10-13T02:36:12;100290.60;;;7.70
68127;BMP180;54931;52.098;21.006;2023-10-13T02:38:40;100284.80;;;7.70
68127;BMP180;54931;52.098;21.006;2023-10-13T02:41:18;100267.00;;;7.80
68127;BMP180;54931;52.098;21.006;2023-10-13T02:43:56;100276.00;;;7.90
68127;BMP180;54931;52.098;21.006;2023-10-13T02:46:24;100278.40;;;7.90
68127;BMP180;54931;52.098;21.006;2023-10-13T02:48:56;100283.20;;;8.00
68127;BMP180;54931;52.098;21.006;2023-10-13T02:51:26;100279.60;;;8.00
68127;BMP180;54931;52.098;21.006;2023-10-13T02:54:05;100284.00;;;8.10
68127;BMP180;54931;52.098;21.006;2023-10-13T02:56:46;100288.40;;;8.20
68127;BMP180;54931;52.098;21.006;2023-10-13T02:59:30;100292.80;;;8.20
68127;BMP180;54931;52.098;21.006;2023-10-13T03:02:23;100285.80;;;8.30
68127;BMP180;54931;52.098;21.006;2023-10-13T03:04:56;100283.40;;;8.30
68127;BMP180;54931;52.098;21.006;2023-10-13T03:07:27;100285.20;;;8.40
68127;BMP180;54931;52.098;21.006;2023-10-13T03:09:59;100290.00;;;8.40
68127;BMP180;54931;52.098;21.006;2023-10-13T03:12:40;100287.20;;;8.44
68127;BMP180;54931;52.098;21.006;2023-10-13T03:15:08;100283.80;;;8.50
68127;BMP180;54931;52.098;21.006;2023-10-13T03:17:46;100286.60;;;8.50
68127;BMP180;54931;52.098;21.006;2023-10-13T03:20:17;100287.40;;;8.50
68127;BMP180;54931;52.098;21.006;2023-10-13T03:22:55;100290.20;;;8.50
68127;BMP180;54931;52.098;21.006;2023-10-13T03:25:23;100285.40;;;8.50
68127;BMP180;54931;52.098;21.006;2023-10-13T03:27:57;100279.00;;;8.50
68127;BMP180;54931;52.098;21.006;2023-10-13T03:30:26;100270.80;;;8.40
68127;BMP180;54931;52.098;21.006;2023-10-13T03:33:05;100266.60;;;8.40
68127;BMP180;54931;52.098;21.006;2023-10-13T03:35:41;100263.20;;;8.30
68127;BMP180;54931;52.098;21.006;2023-10-13T03:38:10;100259.00;;;8.22
68127;BMP180;54931;52.098;21.006;2023-10-13T03:40:46;100254.80;;;8.20
68127;BMP180;54931;52.098;21.006;2023-10-13T03:43:18;100268.40;;;8.10
68127;BMP180;54931;52.098;21.006;2023-10-13T03:45:58;100275.00;;;8.00
68127;BMP180;54931;52.098;21.006;2023-10-13T03:48:29;100283.00;;;8.00
68127;BMP180;54931;52.098;21.006;2023-10-13T03:51:00;100276.60;;;7.90
68127;BMP180;54931;52.098;21.006;2023-10-13T03:53:39;100281.40;;;7.90
68127;BMP180;54931;52.098;21.006;2023-10-13T03:56:28;100279.00;;;7.80
68127;BMP180;54931;52.098;21.006;2023-10-13T03:59:07;100275.00;;;7.78
68127;BMP180;54931;52.098;21.006;2023-10-13T04:01:47;100277.80;;;7.70
68127;BMP180;54931;52.098;21.006;2023-10-13T04:04:29;100272.00;;;7.60
68127;BMP180;54931;52.098;21.006;2023-10-13T04:07:11;100278.20;;;7.60
68127;BMP180;54931;52.098;21.006;2023-10-13T04:09:40;100278.80;;;7.50
68127;BMP180;54931;52.098;21.006;2023-10-13T04:12:14;100282.60;;;7.40
68127;BMP180;54931;52.098;21.006;2023-10-13T04:15:00;100286.20;;;7.32
68127;BMP180;54931;52.098;21.006;2023-10-13T04:17:34;100297.20;;;7.30
68127;BMP180;54931;52.098;21.006;2023-10-13T04:20:08;100292.80;;;7.18
68127;BMP180;54931;52.098;21.006;2023-10-13T04:22:40;100285.40;;;7.10
68127;BMP180;54931;52.098;21.006;2023-10-13T04:25:27;100288.20;;;7.00
68127;BMP180;54931;52.098;21.006;2023-10-13T04:28:14;100290.00;;;6.90
68127;BMP180;54931;52.098;21.006;2023-10-13T04:30:49;100283.80;;;6.84
68127;BMP180;54931;52.098;21.006;2023-10-13T04:33:28;100285.40;;;6.80
68127;BMP180;54931;52.098;21.006;2023-10-13T04:38:58;100282.40;;;6.70
68127;BMP180;54931;52.098;21.006;2023-10-13T04:41:40;100287.00;;;6.60
68127;BMP180;54931;52.098;21.006;2023-10-13T04:44:16;100286.00;;;6.60
68127;BMP180;54931;52.098;21.006;2023-10-13T04:47:03;100289.60;;;6.60
68127;BMP180;54931;52.098;21.006;2023-10-13T04:49:34;100285.60;;;6.60
68127;BMP180;54931;52.098;21.006;2023-10-13T04:52:06;100280.00;;;6.60
68127;BMP180;54931;52.098;21.006;2023-10-13T04:54:43;100275.60;;;6.60
68127;BMP180;54931;52.098;21.006;2023-10-13T04:57:19;100264.60;;;6.68
68127;BMP180;54931;52.098;21.006;2023-10-13T05:00:04;100271.20;;;6.70
68127;BMP180;54931;52.098;21.006;2023-10-13T05:02:40;100273.00;;;6.80
68127;BMP180;54931;52.098;21.006;2023-10-13T05:05:13;100275.40;;;6.80
68127;BMP180;54931;52.098;21.006;2023-10-13T05:07:41;100278.60;;;6.90
68127;BMP180;54931;52.098;21.006;2023-10-13T05:10:30;100282.00;;;7.00
68127;BMP180;54931;52.098;21.006;2023-10-13T05:13:17;100280.40;;;7.10
68127;BMP180;54931;52.098;21.006;2023-10-13T05:16:14;100274.60;;;7.20
68127;BMP180;54931;52.098;21.006;2023-10-13T05:19:00;100274.40;;;7.30
68127;BMP180;54931;52.098;21.006;2023-10-13T05:21:46;100269.60;;;7.40
68127;BMP180;54931;52.098;21.006;2023-10-13T05:24:32;100280.80;;;7.46
68127;BMP180;54931;52.098;21.006;2023-10-13T05:27:19;100292.20;;;7.50
68127;BMP180;54931;52.098;21.006;2023-10-13T05:30:07;100298.40;;;7.60
68127;BMP180;54931;52.098;21.006;2023-10-13T05:32:53;100300.20;;;7.70
68127;BMP180;54931;52.098;21.006;2023-10-13T05:35:40;100304.00;;;7.80
68127;BMP180;54931;52.098;21.006;2023-10-13T05:38:27;100312.20;;;7.90
68127;BMP180;54931;52.098;21.006;2023-10-13T05:41:13;100316.00;;;8.00
68127;BMP180;54931;52.098;21.006;2023-10-13T05:44:00;100310.80;;;8.20
68127;BMP180;54931;52.098;21.006;2023-10-13T05:46:46;100310.40;;;8.30
68127;BMP180;54931;52.098;21.006;2023-10-13T05:49:28;100310.20;;;8.46
68127;BMP180;54931;52.098;21.006;2023-10-13T05:52:17;100315.60;;;8.58
68127;BMP180;54931;52.098;21.006;2023-10-13T05:55:08;100320.80;;;8.70
68127;BMP180;54931;52.098;21.006;2023-10-13T05:57:54;100322.00;;;8.80
68127;BMP180;54931;52.098;21.006;2023-10-13T06:00:41;100333.60;;;8.92
68127;BMP180;54931;52.098;21.006;2023-10-13T06:03:28;100346.40;;;9.00
68127;BMP180;54931;52.098;21.006;2023-10-13T06:06:14;100359.20;;;9.10
68127;BMP180;54931;52.098;21.006;2023-10-13T06:09:00;100359.80;;;9.20
68127;BMP180;54931;52.098;21.006;2023-10-13T06:11:47;100349.20;;;9.30
68127;BMP180;54931;52.098;21.006;2023-10-13T06:14:33;100347.80;;;9.40
68127;BMP180;54931;52.098;21.006;2023-10-13T06:17:20;100348.00;;;9.40
68127;BMP180;54931;52.098;21.006;2023-10-13T06:20:07;100358.00;;;9.50
68127;BMP180;54931;52.098;21.006;2023-10-13T06:22:53;100361.80;;;9.62
68127;BMP180;54931;52.098;21.006;2023-10-13T06:25:40;100366.60;;;9.70
68127;BMP180;54931;52.098;21.006;2023-10-13T06:28:26;100361.80;;;9.80
68127;BMP180;54931;52.098;21.006;2023-10-13T06:31:12;100368.40;;;9.86
68127;BMP180;54931;52.098;21.006;2023-10-13T06:33:48;100377.00;;;9.90
68127;BMP180;54931;52.098;21.006;2023-10-13T06:36:16;100379.80;;;10.00
68127;BMP180;54931;52.098;21.006;2023-10-13T06:38:45;100379.60;;;10.00
68127;BMP180;54931;52.098;21.006;2023-10-13T06:41:22;100384.40;;;10.00
68127;BMP180;54931;52.098;21.006;2023-10-13T06:43:58;100383.00;;;10.00
68127;BMP180;54931;52.098;21.006;2023-10-13T06:46:28;100384.40;;;10.00
68127;BMP180;54931;52.098;21.006;2023-10-13T06:48:56;100382.20;;;10.00
68127;BMP180;54931;52.098;21.006;2023-10-13T06:51:27;100377.00;;;10.00
68127;BMP180;54931;52.098;21.006;2023-10-13T06:53:59;100382.80;;;10.00
68127;BMP180;54931;52.098;21.006;2023-10-13T06:56:28;100388.80;;;10.00
68127;BMP180;54931;52.098;21.006;2023-10-13T06:58:57;100394.00;;;10.04
68127;BMP180;54931;52.098;21.006;2023-10-13T07:01:28;100397.60;;;10.10
68127;BMP180;54931;52.098;21.006;2023-10-13T07:03:55;100393.60;;;10.10
68127;BMP180;54931;52.098;21.006;2023-10-13T07:06:29;100392.60;;;10.10
68127;BMP180;54931;52.098;21.006;2023-10-13T07:08:59;100388.20;;;10.10
68127;BMP180;54931;52.098;21.006;2023-10-13T07:11:31;100388.20;;;10.10
68127;BMP180;54931;52.098;21.006;2023-10-13T07:14:05;100386.60;;;10.10
68127;BMP180;54931;52.098;21.006;2023-10-13T07:17:06;100386.80;;;10.10
68127;BMP180;54931;52.098;21.006;2023-10-13T07:19:35;100387.40;;;10.10
68127;BMP180;54931;52.098;21.006;2023-10-13T07:22:12;100390.40;;;10.10
68127;BMP180;54931;52.098;21.006;2023-10-13T07:24:50;100389.40;;;10.10
68127;BMP180;54931;52.098;21.006;2023-10-13T07:27:22;100389.00;;;10.10
68127;BMP180;54931;52.098;21.006;2023-10-13T07:29:55;100384.20;;;10.10
68127;BMP180;54931;52.098;21.006;2023-10-13T07:32:43;100383.40;;;10.16
68127;BMP180;54931;52.098;21.006;2023-10-13T07:35:16;100373.40;;;10.20
68127;BMP180;54931;52.098;21.006;2023-10-13T07:37:47;100378.20;;;10.20
68127;BMP180;54931;52.098;21.006;2023-10-13T07:40:16;100375.80;;;10.30
68127;BMP180;54931;52.098;21.006;2023-10-13T07:42:55;100371.60;;;10.30
68127;BMP180;54931;52.098;21.006;2023-10-13T07:45:37;100370.00;;;10.40
68127;BMP180;54931;52.098;21.006;2023-10-13T07:48:09;100374.00;;;10.40
68127;BMP180;54931;52.098;21.006;2023-10-13T07:50:44;100375.60;;;10.50
68127;BMP180;54931;52.098;21.006;2023-10-13T07:53:12;100372.80;;;10.60
68127;BMP180;54931;52.098;21.006;2023-10-13T07:55:46;100369.80;;;10.70
68127;BMP180;54931;52.098;21.006;2023-10-13T07:58:39;100365.20;;;10.72
68127;BMP180;54931;52.098;21.006;2023-10-13T08:01:19;100364.40;;;10.74
68127;BMP180;54931;52.098;21.006;2023-10-13T08:03:48;100362.60;;;10.72
68127;BMP180;54931;52.098;21.006;2023-10-13T08:06:24;100359.00;;;10.74
68127;BMP180;54931;52.098;21.006;2023-10-13T08:08:56;100358.00;;;10.70
68127;BMP180;54931;52.098;21.006;2023-10-13T08:11:44;100352.60;;;10.80
68127;BMP180;54931;52.098;21.006;2023-10-13T08:14:12;100356.00;;;10.80
68127;BMP180;54931;52.098;21.006;2023-10-13T08:16:40;100352.60;;;10.80
68127;BMP180;54931;52.098;21.006;2023-10-13T08:19:23;100348.60;;;10.86
68127;BMP180;54931;52.098;21.006;2023-10-13T08:21:57;100342.20;;;10.90
68127;BMP180;54931;52.098;21.006;2023-10-13T08:24:26;100341.00;;;11.00
68127;BMP180;54931;52.098;21.006;2023-10-13T08:27:21;100340.60;;;11.30
68127;BMP180;54931;52.098;21.006;2023-10-13T08:30:21;100333.60;;;11.60
68127;BMP180;54931;52.098;21.006;2023-10-13T08:33:09;100329.80;;;11.90
68127;BMP180;54931;52.098;21.006;2023-10-13T08:35:46;100332.00;;;11.96
68127;BMP180;54931;52.098;21.006;2023-10-13T08:38:33;100334.40;;;12.08
68127;BMP180;54931;52.098;21.006;2023-10-13T08:41:18;100339.40;;;12.18
68127;BMP180;54931;52.098;21.006;2023-10-13T08:43:52;100340.80;;;12.22
68127;BMP180;54931;52.098;21.006;2023-10-13T08:46:31;100333.40;;;12.28
68127;BMP180;54931;52.098;21.006;2023-10-13T08:49:19;100332.00;;;12.30
68127;BMP180;54931;52.098;21.006;2023-10-13T08:51:53;100325.40;;;12.20
68127;BMP180;54931;52.098;21.006;2023-10-13T08:54:35;100322.60;;;12.22
68127;BMP180;54931;52.098;21.006;2023-10-13T08:57:12;100322.20;;;12.30
68127;BMP180;54931;52.098;21.006;2023-10-13T09:00:01;100329.60;;;12.40
68127;BMP180;54931;52.098;21.006;2023-10-13T09:02:49;100325.20;;;12.54
68127;BMP180;54931;52.098;21.006;2023-10-13T09:05:29;100323.40;;;12.70
68127;BMP180;54931;52.098;21.006;2023-10-13T09:08:29;100319.60;;;12.80
68127;BMP180;54931;52.098;21.006;2023-10-13T09:11:03;100322.60;;;13.00
68127;BMP180;54931;52.098;21.006;2023-10-13T09:13:43;100318.60;;;13.16
68127;BMP180;54931;52.098;21.006;2023-10-13T09:16:13;100326.40;;;13.24
68127;BMP180;54931;52.098;21.006;2023-10-13T09:18:49;100321.60;;;13.30
68127;BMP180;54931;52.098;21.006;2023-10-13T09:21:20;100319.40;;;13.30
68127;BMP180;54931;52.098;21.006;2023-10-13T09:24:13;100319.20;;;13.40
68127;BMP180;54931;52.098;21.006;2023-10-13T09:27:02;100320.00;;;13.50
68127;BMP180;54931;52.098;21.006;2023-10-13T09:29:31;100318.00;;;13.68
68127;BMP180;54931;52.098;21.006;2023-10-13T09:32:06;100319.00;;;13.80
68127;BMP180;54931;52.098;21.006;2023-10-13T09:34:39;100314.60;;;13.80
68127;BMP180;54931;52.098;21.006;2023-10-13T09:37:11;100318.00;;;13.86
68127;BMP180;54931;52.098;21.006;2023-10-13T09:39:42;100316.00;;;14.00
68127;BMP180;54931;52.098;21.006;2023-10-13T09:42:19;100308.20;;;14.08
68127;BMP180;54931;52.098;21.006;2023-10-13T09:44:46;100306.40;;;14.20
68127;BMP180;54931;52.098;21.006;2023-10-13T09:47:22;100305.40;;;14.30
68127;BMP180;54931;52.098;21.006;2023-10-13T09:50:08;100305.00;;;14.58
68127;BMP180;54931;52.098;21.006;2023-10-13T09:52:45;100303.00;;;14.64
68127;BMP180;54931;52.098;21.006;2023-10-13T09:55:35;100298.80;;;14.70
68127;BMP180;54931;52.098;21.006;2023-10-13T09:58:12;100293.40;;;14.70
68127;BMP180;54931;52.098;21.006;2023-10-13T10:00:52;100290.80;;;14.80
68127;BMP180;54931;52.098;21.006;2023-10-13T10:03:27;100284.60;;;14.90
68127;BMP180;54931;52.098;21.006;2023-10-13T10:06:07;100284.60;;;15.06
68127;BMP180;54931;52.098;21.006;2023-10-13T10:08:42;100279.00;;;15.20
68127;BMP180;54931;52.098;21.006;2023-10-13T10:17:13;100274.20;;;15.80
68127;BMP180;54931;52.098;21.006;2023-10-13T10:19:52;100280.20;;;16.10
68127;BMP180;54931;52.098;21.006;2023-10-13T10:22:35;100272.20;;;16.34
68127;BMP180;54931;52.098;21.006;2023-10-13T10:25:06;100265.60;;;16.50
68127;BMP180;54931;52.098;21.006;2023-10-13T10:27:41;100256.40;;;16.50
68127;BMP180;54931;52.098;21.006;2023-10-13T10:30:10;100261.00;;;16.40
68127;BMP180;54931;52.098;21.006;2023-10-13T10:32:40;100257.20;;;16.40
68127;BMP180;54931;52.098;21.006;2023-10-13T10:35:10;100257.20;;;16.40
68127;BMP180;54931;52.098;21.006;2023-10-13T10:37:48;100244.40;;;16.40
68127;BMP180;54931;52.098;21.006;2023-10-13T10:40:17;100246.60;;;16.30
68127;BMP180;54931;52.098;21.006;2023-10-13T10:43:10;100243.40;;;16.20
68127;BMP180;54931;52.098;21.006;2023-10-13T10:45:48;100246.20;;;16.20
68127;BMP180;54931;52.098;21.006;2023-10-13T10:48:17;100243.60;;;16.12
68127;BMP180;54931;52.098;21.006;2023-10-13T10:50:52;100233.80;;;16.10
68127;BMP180;54931;52.098;21.006;2023-10-13T10:53:24;100226.80;;;16.02
68127;BMP180;54931;52.098;21.006;2023-10-13T10:56:07;100223.40;;;16.10
68127;BMP180;54931;52.098;21.006;2023-10-13T10:58:35;100215.80;;;16.20
68127;BMP180;54931;52.098;21.006;2023-10-13T11:01:11;100214.20;;;16.40
68127;BMP180;54931;52.098;21.006;2023-10-13T11:04:03;100211.20;;;16.60
68127;BMP180;54931;52.098;21.006;2023-10-13T11:06:52;100203.00;;;16.80
68127;BMP180;54931;52.098;21.006;2023-10-13T11:09:30;100207.00;;;16.90
68127;BMP180;54931;52.098;21.006;2023-10-13T11:14:32;100201.60;;;17.20
68127;BMP180;54931;52.098;21.006;2023-10-13T11:17:00;100200.40;;;17.20
68127;BMP180;54931;52.098;21.006;2023-10-13T11:19:40;100204.60;;;17.20
68127;BMP180;54931;52.098;21.006;2023-10-13T11:22:15;100198.00;;;17.28
68127;BMP180;54931;52.098;21.006;2023-10-13T11:25:06;100193.00;;;17.50
68127;BMP180;54931;52.098;21.006;2023-10-13T11:27:41;100188.00;;;17.50
68127;BMP180;54931;52.098;21.006;2023-10-13T11:30:13;100183.40;;;17.56
68127;BMP180;54931;52.098;21.006;2023-10-13T11:32:42;100173.80;;;17.50
68127;BMP180;54931;52.098;21.006;2023-10-13T11:35:10;100172.20;;;17.54
68127;BMP180;54931;52.098;21.006;2023-10-13T11:37:50;100168.40;;;17.58
68127;BMP180;54931;52.098;21.006;2023-10-13T11:40:43;100167.40;;;17.50
68127;BMP180;54931;52.098;21.006;2023-10-13T11:43:11;100158.20;;;17.58
68127;BMP180;54931;52.098;21.006;2023-10-13T11:45:47;100154.20;;;17.60
68127;BMP180;54931;52.098;21.006;2023-10-13T11:48:38;100159.20;;;17.60
68127;BMP180;54931;52.098;21.006;2023-10-13T11:51:09;100151.20;;;17.50
68127;BMP180;54931;52.098;21.006;2023-10-13T11:53:44;100151.60;;;17.50
68127;BMP180;54931;52.098;21.006;2023-10-13T11:56:12;100147.20;;;17.60
68127;BMP180;54931;52.098;21.006;2023-10-13T11:58:40;100150.20;;;17.70
68127;BMP180;54931;52.098;21.006;2023-10-13T12:01:08;100149.00;;;17.80
68127;BMP180;54931;52.098;21.006;2023-10-13T12:03:48;100148.60;;;17.90
68127;BMP180;54931;52.098;21.006;2023-10-13T12:06:35;100140.40;;;18.00
68127;BMP180;54931;52.098;21.006;2023-10-13T12:09:23;100138.40;;;18.10
68127;BMP180;54931;52.098;21.006;2023-10-13T12:11:51;100136.00;;;18.10
68127;BMP180;54931;52.098;21.006;2023-10-13T12:14:21;100136.80;;;18.20
68127;BMP180;54931;52.098;21.006;2023-10-13T12:16:55;100136.00;;;18.24
68127;BMP180;54931;52.098;21.006;2023-10-13T12:19:24;100135.40;;;18.30
68127;BMP180;54931;52.098;21.006;2023-10-13T12:21:54;100129.80;;;18.38
68127;BMP180;54931;52.098;21.006;2023-10-13T12:24:29;100124.20;;;18.40
68127;BMP180;54931;52.098;21.006;2023-10-13T12:27:04;100124.20;;;18.42
68127;BMP180;54931;52.098;21.006;2023-10-13T12:29:49;100116.60;;;18.40
68127;BMP180;54931;52.098;21.006;2023-10-13T12:32:19;100111.20;;;18.40
68127;BMP180;54931;52.098;21.006;2023-10-13T12:34:52;100106.00;;;18.50
68127;BMP180;54931;52.098;21.006;2023-10-13T12:37:31;100095.00;;;18.58
68127;BMP180;54931;52.098;21.006;2023-10-13T12:40:19;100089.80;;;18.60
68127;BMP180;54931;52.098;21.006;2023-10-13T12:43:05;100090.00;;;18.72
68127;BMP180;54931;52.098;21.006;2023-10-13T12:45:51;100090.80;;;18.80
68127;BMP180;54931;52.098;21.006;2023-10-13T12:48:37;100091.40;;;18.90
68127;BMP180;54931;52.098;21.006;2023-10-13T12:51:26;100091.00;;;18.98
68127;BMP180;54931;52.098;21.006;2023-10-13T12:54:01;100086.60;;;18.98
68127;BMP180;54931;52.098;21.006;2023-10-13T12:56:33;100084.20;;;18.90
68127;BMP180;54931;52.098;21.006;2023-10-13T12:59:04;100084.20;;;19.00
68127;BMP180;54931;52.098;21.006;2023-10-13T13:01:36;100063.80;;;18.98
68127;BMP180;54931;52.098;21.006;2023-10-13T13:04:10;100063.00;;;18.90
68127;BMP180;54931;52.098;21.006;2023-10-13T13:06:59;100063.40;;;18.80
68127;BMP180;54931;52.098;21.006;2023-10-13T13:09:26;100071.40;;;18.80
68127;BMP180;54931;52.098;21.006;2023-10-13T13:11:55;100073.00;;;18.80
68127;BMP180;54931;52.098;21.006;2023-10-13T13:14:26;100070.80;;;18.80
68127;BMP180;54931;52.098;21.006;2023-10-13T13:16:56;100078.40;;;18.90
68127;BMP180;54931;52.098;21.006;2023-10-13T13:19:37;100069.00;;;19.00
68127;BMP180;54931;52.098;21.006;2023-10-13T13:22:09;100063.00;;;19.10
68127;BMP180;54931;52.098;21.006;2023-10-13T13:24:41;100059.80;;;19.20
68127;BMP180;54931;52.098;21.006;2023-10-13T13:27:16;100058.00;;;19.20
68127;BMP180;54931;52.098;21.006;2023-10-13T13:29:49;100060.40;;;19.20
68127;BMP180;54931;52.098;21.006;2023-10-13T13:32:17;100053.80;;;19.18
68127;BMP180;54931;52.098;21.006;2023-10-13T13:34:46;100052.40;;;19.10
68127;BMP180;54931;52.098;21.006;2023-10-13T13:37:21;100046.80;;;19.10
68127;BMP180;54931;52.098;21.006;2023-10-13T13:39:49;100038.00;;;19.10
68127;BMP180;54931;52.098;21.006;2023-10-13T13:42:20;100039.40;;;19.00
68127;BMP180;54931;52.098;21.006;2023-10-13T13:44:47;100040.00;;;19.00
68127;BMP180;54931;52.098;21.006;2023-10-13T13:47:15;100030.80;;;18.90
68127;BMP180;54931;52.098;21.006;2023-10-13T13:49:44;100029.00;;;18.90
68127;BMP180;54931;52.098;21.006;2023-10-13T13:52:18;100021.40;;;18.80
68127;BMP180;54931;52.098;21.006;2023-10-13T13:54:50;100019.60;;;18.80
68127;BMP180;54931;52.098;21.006;2023-10-13T13:57:18;100019.40;;;18.80
68127;BMP180;54931;52.098;21.006;2023-10-13T13:59:45;100013.40;;;18.78
68127;BMP180;54931;52.098;21.006;2023-10-13T14:02:13;100009.60;;;18.72
68127;BMP180;54931;52.098;21.006;2023-10-13T14:04:50;100012.20;;;18.70
68127;BMP180;54931;52.098;21.006;2023-10-13T14:07:20;100007.00;;;18.70
68127;BMP180;54931;52.098;21.006;2023-10-13T14:09:48;100004.40;;;18.70
68127;BMP180;54931;52.098;21.006;2023-10-13T14:12:19;100004.40;;;18.70
68127;BMP180;54931;52.098;21.006;2023-10-13T14:14:57;100001.60;;;18.70
68127;BMP180;54931;52.098;21.006;2023-10-13T14:17:24;100003.60;;;18.70
68127;BMP180;54931;52.098;21.006;2023-10-13T14:20:03;100004.60;;;18.70
68127;BMP180;54931;52.098;21.006;2023-10-13T14:22:43;99995.80;;;18.62
68127;BMP180;54931;52.098;21.006;2023-10-13T14:25:14;99990.60;;;18.60
68127;BMP180;54931;52.098;21.006;2023-10-13T14:27:42;99999.00;;;18.60
68127;BMP180;54931;52.098;21.006;2023-10-13T14:30:11;99992.60;;;18.50
68127;BMP180;54931;52.098;21.006;2023-10-13T14:32:46;99983.60;;;18.50
68127;BMP180;54931;52.098;21.006;2023-10-13T14:35:14;99979.80;;;18.50
68127;BMP180;54931;52.098;21.006;2023-10-13T14:37:42;99982.00;;;18.50
68127;BMP180;54931;52.098;21.006;2023-10-13T14:40:10;99980.40;;;18.50
68127;BMP180;54931;52.098;21.006;2023-10-13T14:42:43;99989.20;;;18.48
68127;BMP180;54931;52.098;21.006;2023-10-13T14:45:10;99986.80;;;18.42
68127;BMP180;54931;52.098;21.006;2023-10-13T14:47:44;99984.80;;;18.40
68127;BMP180;54931;52.098;21.006;2023-10-13T14:50:13;99982.60;;;18.40